Terminal Aerodrome Forecast
Issued by NWS Green Bay, WI

Home | Current Version | Previous Version | Graphics & Text | Print | Product List | Glossary On
Versions: 1 2 3 4 5 6 7 8 9 10 11 12 13 14 15 16 17 18 19 20 21 22 23 24
326
FTUS43 KGRB 232331
TAFGRB
TAF
KGRB 232331Z 2400/2424 17006KT P6SM SCT150
     FM240600 17003KT P6SM SCT250
      TEMPO 2409/2413 4SM BR
     FM241400 19007KT P6SM FEW040 SCT250=

USA.gov is the U.S. government's official web portal to all federal, state and local government web resources and services.